sensor_id;sensor_type;location;lat;lon;timestamp;P1;durP1;ratioP1;P2;durP2;ratioP2
2972;SDS011;1496;51.404;7.232;2022-09-09T00:00:25;22.97;;;1.20;;
2972;SDS011;1496;51.404;7.232;2022-09-09T00:05:20;23.27;;;1.30;;
2972;SDS011;1496;51.404;7.232;2022-09-09T00:08:12;22.93;;;1.40;;
2972;SDS011;1496;51.404;7.232;2022-09-09T00:10:43;22.20;;;1.10;;
2972;SDS011;1496;51.404;7.232;2022-09-09T00:13:24;28.10;;;1.57;;
2972;SDS011;1496;51.404;7.232;2022-09-09T00:21:15;23.20;;;1.10;;
2972;SDS011;1496;51.404;7.232;2022-09-09T00:23:52;23.83;;;1.20;;
2972;SDS011;1496;51.404;7.232;2022-09-09T00:32:12;23.50;;;1.30;;
2972;SDS011;1496;51.404;7.232;2022-09-09T00:34:48;24.33;;;1.23;;
2972;SDS011;1496;51.404;7.232;2022-09-09T00:37:24;22.87;;;1.30;;
2972;SDS011;1496;51.404;7.232;2022-09-09T00:39:51;24.20;;;1.30;;
2972;SDS011;1496;51.404;7.232;2022-09-09T00:42:25;23.57;;;1.30;;
2972;SDS011;1496;51.404;7.232;2022-09-09T00:47:51;22.80;;;1.53;;
2972;SDS011;1496;51.404;7.232;2022-09-09T00:50:26;22.90;;;1.90;;
2972;SDS011;1496;51.404;7.232;2022-09-09T00:55:49;25.80;;;1.90;;
2972;SDS011;1496;51.404;7.232;2022-09-09T00:58:21;25.13;;;2.07;;
2972;SDS011;1496;51.404;7.232;2022-09-09T01:00:51;23.77;;;1.97;;
2972;SDS011;1496;51.404;7.232;2022-09-09T01:06:20;25.23;;;1.93;;
2972;SDS011;1496;51.404;7.232;2022-09-09T01:11:43;23.10;;;1.80;;
2972;SDS011;1496;51.404;7.232;2022-09-09T01:14:40;22.57;;;1.97;;
2972;SDS011;1496;51.404;7.232;2022-09-09T01:28:33;26.27;;;2.30;;
2972;SDS011;1496;51.404;7.232;2022-09-09T01:31:06;24.93;;;2.53;;
2972;SDS011;1496;51.404;7.232;2022-09-09T01:33:41;26.03;;;3.23;;
2972;SDS011;1496;51.404;7.232;2022-09-09T01:36:09;22.67;;;3.03;;
2972;SDS011;1496;51.404;7.232;2022-09-09T01:38:51;29.60;;;3.20;;
2972;SDS011;1496;51.404;7.232;2022-09-09T01:41:18;24.67;;;3.10;;
2972;SDS011;1496;51.404;7.232;2022-09-09T01:43:49;19.83;;;3.00;;
2972;SDS011;1496;51.404;7.232;2022-09-09T01:46:16;23.17;;;3.40;;
2972;SDS011;1496;51.404;7.232;2022-09-09T01:48:46;19.83;;;3.70;;
2972;SDS011;1496;51.404;7.232;2022-09-09T01:51:13;17.53;;;3.00;;
2972;SDS011;1496;51.404;7.232;2022-09-09T01:53:39;17.03;;;2.70;;
2972;SDS011;1496;51.404;7.232;2022-09-09T01:56:13;17.17;;;2.83;;
2972;SDS011;1496;51.404;7.232;2022-09-09T02:04:39;16.13;;;2.80;;
2972;SDS011;1496;51.404;7.232;2022-09-09T02:07:32;15.83;;;2.73;;
2972;SDS011;1496;51.404;7.232;2022-09-09T02:10:23;13.93;;;2.03;;
2972;SDS011;1496;51.404;7.232;2022-09-09T02:13:15;14.40;;;2.33;;
2972;SDS011;1496;51.404;7.232;2022-09-09T02:18:13;16.03;;;2.70;;
2972;SDS011;1496;51.404;7.232;2022-09-09T02:20:43;14.57;;;2.27;;
2972;SDS011;1496;51.404;7.232;2022-09-09T02:23:11;17.50;;;2.80;;
2972;SDS011;1496;51.404;7.232;2022-09-09T02:25:38;21.87;;;2.47;;
2972;SDS011;1496;51.404;7.232;2022-09-09T02:28:15;14.80;;;2.80;;
2972;SDS011;1496;51.404;7.232;2022-09-09T02:30:43;15.00;;;2.57;;
2972;SDS011;1496;51.404;7.232;2022-09-09T02:33:13;15.00;;;2.63;;
2972;SDS011;1496;51.404;7.232;2022-09-09T02:35:46;17.53;;;3.03;;
2972;SDS011;1496;51.404;7.232;2022-09-09T02:38:17;16.80;;;2.80;;
2972;SDS011;1496;51.404;7.232;2022-09-09T02:41:08;16.20;;;2.70;;
2972;SDS011;1496;51.404;7.232;2022-09-09T02:43:35;16.27;;;2.40;;
2972;SDS011;1496;51.404;7.232;2022-09-09T02:46:27;13.50;;;2.33;;
2972;SDS011;1496;51.404;7.232;2022-09-09T02:49:02;14.97;;;2.17;;
2972;SDS011;1496;51.404;7.232;2022-09-09T02:51:55;13.70;;;2.40;;
2972;SDS011;1496;51.404;7.232;2022-09-09T02:54:28;14.13;;;2.30;;
2972;SDS011;1496;51.404;7.232;2022-09-09T02:57:08;14.70;;;2.30;;
2972;SDS011;1496;51.404;7.232;2022-09-09T02:59:38;12.50;;;1.90;;
2972;SDS011;1496;51.404;7.232;2022-09-09T03:02:05;9.73;;;1.73;;
2972;SDS011;1496;51.404;7.232;2022-09-09T03:04:31;10.63;;;2.03;;
2972;SDS011;1496;51.404;7.232;2022-09-09T03:06:57;14.57;;;2.50;;
2972;SDS011;1496;51.404;7.232;2022-09-09T03:09:24;8.03;;;1.57;;
2972;SDS011;1496;51.404;7.232;2022-09-09T03:11:52;7.40;;;1.67;;
2972;SDS011;1496;51.404;7.232;2022-09-09T03:14:18;9.90;;;2.10;;
2972;SDS011;1496;51.404;7.232;2022-09-09T03:16:47;11.50;;;1.80;;
2972;SDS011;1496;51.404;7.232;2022-09-09T03:19:13;18.93;;;2.60;;
2972;SDS011;1496;51.404;7.232;2022-09-09T03:21:39;15.97;;;2.40;;
2972;SDS011;1496;51.404;7.232;2022-09-09T03:24:05;9.70;;;1.67;;
2972;SDS011;1496;51.404;7.232;2022-09-09T03:26:32;8.33;;;1.60;;
2972;SDS011;1496;51.404;7.232;2022-09-09T03:28:59;10.10;;;2.13;;
2972;SDS011;1496;51.404;7.232;2022-09-09T03:31:26;9.60;;;1.73;;
2972;SDS011;1496;51.404;7.232;2022-09-09T03:33:56;12.03;;;1.70;;
2972;SDS011;1496;51.404;7.232;2022-09-09T03:36:27;13.40;;;1.80;;
2972;SDS011;1496;51.404;7.232;2022-09-09T03:38:54;14.27;;;1.83;;
2972;SDS011;1496;51.404;7.232;2022-09-09T03:41:23;12.43;;;2.20;;
2972;SDS011;1496;51.404;7.232;2022-09-09T03:43:50;11.63;;;1.93;;
2972;SDS011;1496;51.404;7.232;2022-09-09T03:46:20;12.10;;;1.70;;
2972;SDS011;1496;51.404;7.232;2022-09-09T03:48:49;11.20;;;1.70;;
2972;SDS011;1496;51.404;7.232;2022-09-09T03:51:17;14.57;;;1.80;;
2972;SDS011;1496;51.404;7.232;2022-09-09T03:53:43;15.27;;;2.17;;
2972;SDS011;1496;51.404;7.232;2022-09-09T03:56:09;12.30;;;1.90;;
2972;SDS011;1496;51.404;7.232;2022-09-09T03:58:36;12.87;;;2.20;;
2972;SDS011;1496;51.404;7.232;2022-09-09T04:01:13;14.33;;;2.17;;
2972;SDS011;1496;51.404;7.232;2022-09-09T04:03:40;13.63;;;2.10;;
2972;SDS011;1496;51.404;7.232;2022-09-09T04:06:07;13.90;;;1.90;;
2972;SDS011;1496;51.404;7.232;2022-09-09T04:08:36;12.20;;;2.13;;
2972;SDS011;1496;51.404;7.232;2022-09-09T04:11:04;13.67;;;2.20;;
2972;SDS011;1496;51.404;7.232;2022-09-09T04:13:32;12.60;;;2.53;;
2972;SDS011;1496;51.404;7.232;2022-09-09T04:16:00;9.87;;;1.67;;
2972;SDS011;1496;51.404;7.232;2022-09-09T04:18:27;10.20;;;2.70;;
2972;SDS011;1496;51.404;7.232;2022-09-09T04:20:54;8.00;;;2.23;;
2972;SDS011;1496;51.404;7.232;2022-09-09T04:23:24;13.40;;;2.33;;
2972;SDS011;1496;51.404;7.232;2022-09-09T04:25:51;10.40;;;1.97;;
2972;SDS011;1496;51.404;7.232;2022-09-09T04:28:20;14.57;;;2.30;;
2972;SDS011;1496;51.404;7.232;2022-09-09T04:30:48;12.27;;;1.90;;
2972;SDS011;1496;51.404;7.232;2022-09-09T04:33:15;10.97;;;2.17;;
2972;SDS011;1496;51.404;7.232;2022-09-09T04:35:46;12.23;;;2.43;;
2972;SDS011;1496;51.404;7.232;2022-09-09T04:38:14;11.80;;;2.43;;
2972;SDS011;1496;51.404;7.232;2022-09-09T04:40:45;13.77;;;2.40;;
2972;SDS011;1496;51.404;7.232;2022-09-09T04:43:13;12.50;;;2.00;;
2972;SDS011;1496;51.404;7.232;2022-09-09T04:45:41;13.53;;;2.00;;
2972;SDS011;1496;51.404;7.232;2022-09-09T04:48:12;14.60;;;2.43;;
2972;SDS011;1496;51.404;7.232;2022-09-09T04:50:38;13.77;;;2.53;;
2972;SDS011;1496;51.404;7.232;2022-09-09T04:53:05;14.83;;;1.90;;
2972;SDS011;1496;51.404;7.232;2022-09-09T04:55:33;13.40;;;1.90;;
2972;SDS011;1496;51.404;7.232;2022-09-09T04:58:06;12.83;;;2.03;;
2972;SDS011;1496;51.404;7.232;2022-09-09T05:00:34;14.47;;;2.53;;
2972;SDS011;1496;51.404;7.232;2022-09-09T05:03:03;15.63;;;2.30;;
2972;SDS011;1496;51.404;7.232;2022-09-09T05:05:31;11.80;;;2.20;;
2972;SDS011;1496;51.404;7.232;2022-09-09T05:08:04;9.53;;;2.07;;
2972;SDS011;1496;51.404;7.232;2022-09-09T05:10:33;14.57;;;2.30;;
2972;SDS011;1496;51.404;7.232;2022-09-09T05:12:59;10.67;;;2.20;;
2972;SDS011;1496;51.404;7.232;2022-09-09T05:15:27;15.27;;;1.93;;
2972;SDS011;1496;51.404;7.232;2022-09-09T05:17:56;14.20;;;2.77;;
2972;SDS011;1496;51.404;7.232;2022-09-09T05:20:28;16.60;;;2.97;;
2972;SDS011;1496;51.404;7.232;2022-09-09T05:22:54;12.63;;;1.90;;
2972;SDS011;1496;51.404;7.232;2022-09-09T05:25:24;10.50;;;2.03;;
2972;SDS011;1496;51.404;7.232;2022-09-09T05:27:54;11.30;;;2.20;;
2972;SDS011;1496;51.404;7.232;2022-09-09T05:30:20;9.57;;;2.10;;
2972;SDS011;1496;51.404;7.232;2022-09-09T05:32:47;9.80;;;2.10;;
2972;SDS011;1496;51.404;7.232;2022-09-09T05:35:14;14.13;;;2.30;;
2972;SDS011;1496;51.404;7.232;2022-09-09T05:37:40;13.30;;;3.13;;
2972;SDS011;1496;51.404;7.232;2022-09-09T05:40:06;10.33;;;2.00;;
2972;SDS011;1496;51.404;7.232;2022-09-09T05:42:32;12.10;;;2.57;;
2972;SDS011;1496;51.404;7.232;2022-09-09T05:44:58;10.23;;;1.87;;
2972;SDS011;1496;51.404;7.232;2022-09-09T05:47:24;14.03;;;4.33;;
2972;SDS011;1496;51.404;7.232;2022-09-09T05:49:53;13.70;;;2.10;;
2972;SDS011;1496;51.404;7.232;2022-09-09T05:52:20;13.47;;;2.70;;
2972;SDS011;1496;51.404;7.232;2022-09-09T05:54:46;15.37;;;2.80;;
2972;SDS011;1496;51.404;7.232;2022-09-09T05:57:11;12.67;;;2.20;;
2972;SDS011;1496;51.404;7.232;2022-09-09T05:59:37;15.30;;;2.20;;
2972;SDS011;1496;51.404;7.232;2022-09-09T06:02:03;11.83;;;1.67;;
2972;SDS011;1496;51.404;7.232;2022-09-09T06:04:33;12.37;;;2.00;;
2972;SDS011;1496;51.404;7.232;2022-09-09T06:07:00;13.60;;;2.40;;
2972;SDS011;1496;51.404;7.232;2022-09-09T06:09:26;21.60;;;2.37;;
2972;SDS011;1496;51.404;7.232;2022-09-09T06:11:52;19.73;;;2.50;;
2972;SDS011;1496;51.404;7.232;2022-09-09T06:14:21;16.33;;;2.20;;
2972;SDS011;1496;51.404;7.232;2022-09-09T06:16:48;17.80;;;1.90;;
2972;SDS011;1496;51.404;7.232;2022-09-09T06:19:20;15.43;;;1.87;;
2972;SDS011;1496;51.404;7.232;2022-09-09T06:21:47;17.87;;;2.30;;
2972;SDS011;1496;51.404;7.232;2022-09-09T06:24:13;14.70;;;2.17;;
2972;SDS011;1496;51.404;7.232;2022-09-09T06:26:43;15.03;;;2.37;;
2972;SDS011;1496;51.404;7.232;2022-09-09T06:29:17;14.10;;;2.40;;
2972;SDS011;1496;51.404;7.232;2022-09-09T06:31:44;14.40;;;2.20;;
2972;SDS011;1496;51.404;7.232;2022-09-09T06:34:16;16.77;;;2.10;;
2972;SDS011;1496;51.404;7.232;2022-09-09T06:36:46;23.17;;;2.23;;
2972;SDS011;1496;51.404;7.232;2022-09-09T06:39:12;16.33;;;2.43;;
2972;SDS011;1496;51.404;7.232;2022-09-09T06:41:40;16.23;;;2.07;;
2972;SDS011;1496;51.404;7.232;2022-09-09T06:44:13;15.03;;;2.03;;
2972;SDS011;1496;51.404;7.232;2022-09-09T06:46:41;14.20;;;2.07;;
2972;SDS011;1496;51.404;7.232;2022-09-09T06:49:08;14.63;;;1.60;;
2972;SDS011;1496;51.404;7.232;2022-09-09T06:51:35;16.67;;;1.70;;
2972;SDS011;1496;51.404;7.232;2022-09-09T06:54:08;21.20;;;2.17;;
2972;SDS011;1496;51.404;7.232;2022-09-09T06:56:35;16.30;;;1.93;;
2972;SDS011;1496;51.404;7.232;2022-09-09T06:59:06;17.90;;;2.50;;
2972;SDS011;1496;51.404;7.232;2022-09-09T07:01:37;17.93;;;2.20;;
2972;SDS011;1496;51.404;7.232;2022-09-09T07:04:08;14.87;;;1.83;;
2972;SDS011;1496;51.404;7.232;2022-09-09T07:06:41;20.27;;;2.00;;
2972;SDS011;1496;51.404;7.232;2022-09-09T07:09:11;17.77;;;1.73;;
2972;SDS011;1496;51.404;7.232;2022-09-09T07:11:41;22.40;;;2.27;;
2972;SDS011;1496;51.404;7.232;2022-09-09T07:14:18;19.90;;;1.70;;
2972;SDS011;1496;51.404;7.232;2022-09-09T07:16:51;23.60;;;2.10;;
2972;SDS011;1496;51.404;7.232;2022-09-09T07:19:17;23.90;;;2.00;;
2972;SDS011;1496;51.404;7.232;2022-09-09T07:21:45;18.33;;;2.07;;
2972;SDS011;1496;51.404;7.232;2022-09-09T07:24:14;24.10;;;2.53;;
2972;SDS011;1496;51.404;7.232;2022-09-09T07:26:41;19.50;;;1.77;;
2972;SDS011;1496;51.404;7.232;2022-09-09T07:29:10;18.80;;;1.57;;
2972;SDS011;1496;51.404;7.232;2022-09-09T07:31:40;23.57;;;1.83;;
2972;SDS011;1496;51.404;7.232;2022-09-09T07:34:10;22.00;;;1.57;;
2972;SDS011;1496;51.404;7.232;2022-09-09T07:36:37;28.90;;;2.40;;
2972;SDS011;1496;51.404;7.232;2022-09-09T07:39:06;27.57;;;1.90;;
2972;SDS011;1496;51.404;7.232;2022-09-09T07:41:36;25.83;;;1.50;;
2972;SDS011;1496;51.404;7.232;2022-09-09T07:44:16;29.67;;;2.33;;
2972;SDS011;1496;51.404;7.232;2022-09-09T07:46:46;31.10;;;2.10;;
2972;SDS011;1496;51.404;7.232;2022-09-09T07:49:16;32.23;;;2.53;;
2972;SDS011;1496;51.404;7.232;2022-09-09T07:51:44;26.83;;;1.57;;
2972;SDS011;1496;51.404;7.232;2022-09-09T07:54:13;25.40;;;1.60;;
2972;SDS011;1496;51.404;7.232;2022-09-09T07:56:43;25.67;;;1.50;;
2972;SDS011;1496;51.404;7.232;2022-09-09T07:59:11;27.13;;;1.90;;
2972;SDS011;1496;51.404;7.232;2022-09-09T08:01:40;27.60;;;1.90;;
2972;SDS011;1496;51.404;7.232;2022-09-09T08:04:14;22.83;;;2.00;;
2972;SDS011;1496;51.404;7.232;2022-09-09T08:09:24;18.97;;;2.13;;
2972;SDS011;1496;51.404;7.232;2022-09-09T08:11:53;25.30;;;1.97;;
2972;SDS011;1496;51.404;7.232;2022-09-09T08:14:22;23.30;;;1.70;;
2972;SDS011;1496;51.404;7.232;2022-09-09T08:16:49;12.83;;;1.57;;
2972;SDS011;1496;51.404;7.232;2022-09-09T08:19:18;12.37;;;1.33;;
2972;SDS011;1496;51.404;7.232;2022-09-09T08:21:45;15.73;;;1.93;;
2972;SDS011;1496;51.404;7.232;2022-09-09T08:24:12;17.67;;;1.63;;
2972;SDS011;1496;51.404;7.232;2022-09-09T08:26:41;14.43;;;1.60;;
2972;SDS011;1496;51.404;7.232;2022-09-09T08:29:10;12.00;;;2.10;;
2972;SDS011;1496;51.404;7.232;2022-09-09T08:31:38;9.27;;;1.57;;
2972;SDS011;1496;51.404;7.232;2022-09-09T08:34:06;10.40;;;1.40;;
2972;SDS011;1496;51.404;7.232;2022-09-09T08:36:34;16.77;;;2.07;;
2972;SDS011;1496;51.404;7.232;2022-09-09T08:39:02;6.90;;;1.43;;
2972;SDS011;1496;51.404;7.232;2022-09-09T08:49:55;6.57;;;1.60;;
2972;SDS011;1496;51.404;7.232;2022-09-09T08:52:51;4.60;;;1.73;;
2972;SDS011;1496;51.404;7.232;2022-09-09T08:59:00;3.70;;;1.40;;
2972;SDS011;1496;51.404;7.232;2022-09-09T09:01:38;2.60;;;1.37;;
2972;SDS011;1496;51.404;7.232;2022-09-09T09:04:27;4.57;;;1.50;;
2972;SDS011;1496;51.404;7.232;2022-09-09T09:13:07;6.80;;;1.43;;
2972;SDS011;1496;51.404;7.232;2022-09-09T09:15:40;5.00;;;1.67;;
2972;SDS011;1496;51.404;7.232;2022-09-09T09:18:08;5.30;;;1.33;;
2972;SDS011;1496;51.404;7.232;2022-09-09T09:20:43;4.97;;;1.80;;
2972;SDS011;1496;51.404;7.232;2022-09-09T09:23:24;3.33;;;1.40;;
2972;SDS011;1496;51.404;7.232;2022-09-09T09:25:58;3.83;;;1.47;;
2972;SDS011;1496;51.404;7.232;2022-09-09T09:28:29;8.63;;;2.33;;
2972;SDS011;1496;51.404;7.232;2022-09-09T09:31:10;7.70;;;1.60;;
2972;SDS011;1496;51.404;7.232;2022-09-09T09:36:11;9.70;;;2.13;;
2972;SDS011;1496;51.404;7.232;2022-09-09T09:38:50;8.63;;;2.00;;
2972;SDS011;1496;51.404;7.232;2022-09-09T09:41:38;5.20;;;1.87;;
2972;SDS011;1496;51.404;7.232;2022-09-09T09:47:12;5.50;;;1.20;;
2972;SDS011;1496;51.404;7.232;2022-09-09T09:49:54;6.80;;;1.70;;
2972;SDS011;1496;51.404;7.232;2022-09-09T09:52:23;4.17;;;1.33;;
2972;SDS011;1496;51.404;7.232;2022-09-09T09:54:51;4.97;;;1.57;;
2972;SDS011;1496;51.404;7.232;2022-09-09T09:57:22;9.60;;;2.43;;
2972;SDS011;1496;51.404;7.232;2022-09-09T10:00:27;7.23;;;1.50;;
2972;SDS011;1496;51.404;7.232;2022-09-09T10:02:56;6.83;;;2.00;;
2972;SDS011;1496;51.404;7.232;2022-09-09T10:05:28;4.60;;;1.30;;
2972;SDS011;1496;51.404;7.232;2022-09-09T10:08:14;5.10;;;1.40;;
2972;SDS011;1496;51.404;7.232;2022-09-09T10:10:50;4.03;;;1.30;;
2972;SDS011;1496;51.404;7.232;2022-09-09T10:13:38;5.67;;;1.77;;
2972;SDS011;1496;51.404;7.232;2022-09-09T10:19:31;3.47;;;1.20;;
2972;SDS011;1496;51.404;7.232;2022-09-09T10:22:02;5.23;;;1.80;;
2972;SDS011;1496;51.404;7.232;2022-09-09T10:24:57;4.13;;;1.30;;
2972;SDS011;1496;51.404;7.232;2022-09-09T10:33:44;6.50;;;1.20;;
2972;SDS011;1496;51.404;7.232;2022-09-09T10:36:18;2.70;;;1.23;;
2972;SDS011;1496;51.404;7.232;2022-09-09T10:38:47;6.33;;;1.50;;
2972;SDS011;1496;51.404;7.232;2022-09-09T10:41:31;3.63;;;1.50;;
2972;SDS011;1496;51.404;7.232;2022-09-09T10:55:18;3.17;;;0.87;;
2972;SDS011;1496;51.404;7.232;2022-09-09T10:57:46;3.83;;;1.30;;
2972;SDS011;1496;51.404;7.232;2022-09-09T11:00:24;3.67;;;1.23;;
2972;SDS011;1496;51.404;7.232;2022-09-09T11:03:04;4.90;;;1.40;;
2972;SDS011;1496;51.404;7.232;2022-09-09T11:08:20;2.73;;;1.43;;
2972;SDS011;1496;51.404;7.232;2022-09-09T11:10:59;4.73;;;1.10;;
2972;SDS011;1496;51.404;7.232;2022-09-09T11:13:38;4.33;;;1.37;;
2972;SDS011;1496;51.404;7.232;2022-09-09T11:19:11;2.50;;;0.90;;
2972;SDS011;1496;51.404;7.232;2022-09-09T11:21:48;3.37;;;1.30;;
2972;SDS011;1496;51.404;7.232;2022-09-09T11:27:15;5.70;;;1.30;;
2972;SDS011;1496;51.404;7.232;2022-09-09T11:30:22;3.07;;;1.50;;
2972;SDS011;1496;51.404;7.232;2022-09-09T11:38:50;3.43;;;1.10;;
2972;SDS011;1496;51.404;7.232;2022-09-09T11:41:17;2.80;;;1.20;;
2972;SDS011;1496;51.404;7.232;2022-09-09T11:43:52;2.10;;;1.20;;
2972;SDS011;1496;51.404;7.232;2022-09-09T11:46:21;2.30;;;0.87;;
2972;SDS011;1496;51.404;7.232;2022-09-09T11:48:59;3.43;;;1.10;;
2972;SDS011;1496;51.404;7.232;2022-09-09T11:51:28;5.40;;;1.33;;
2972;SDS011;1496;51.404;7.232;2022-09-09T11:56:54;2.80;;;1.10;;
2972;SDS011;1496;51.404;7.232;2022-09-09T11:59:24;1.93;;;0.80;;
2972;SDS011;1496;51.404;7.232;2022-09-09T12:01:55;3.73;;;1.00;;
2972;SDS011;1496;51.404;7.232;2022-09-09T12:07:00;1.90;;;1.00;;
2972;SDS011;1496;51.404;7.232;2022-09-09T12:17:20;2.80;;;1.13;;
2972;SDS011;1496;51.404;7.232;2022-09-09T12:19:48;3.10;;;1.57;;
2972;SDS011;1496;51.404;7.232;2022-09-09T12:25:15;4.23;;;1.83;;
2972;SDS011;1496;51.404;7.232;2022-09-09T12:30:56;6.17;;;2.00;;
2972;SDS011;1496;51.404;7.232;2022-09-09T12:33:42;5.00;;;1.40;;
2972;SDS011;1496;51.404;7.232;2022-09-09T12:36:20;2.60;;;1.10;;
2972;SDS011;1496;51.404;7.232;2022-09-09T12:38:52;2.33;;;1.13;;
2972;SDS011;1496;51.404;7.232;2022-09-09T12:41:21;4.40;;;1.40;;
2972;SDS011;1496;51.404;7.232;2022-09-09T12:43:48;3.03;;;1.27;;
2972;SDS011;1496;51.404;7.232;2022-09-09T12:46:20;1.57;;;0.83;;
2972;SDS011;1496;51.404;7.232;2022-09-09T12:48:58;2.13;;;1.23;;
2972;SDS011;1496;51.404;7.232;2022-09-09T12:51:25;5.30;;;1.30;;
2972;SDS011;1496;51.404;7.232;2022-09-09T12:53:53;2.73;;;1.40;;
2972;SDS011;1496;51.404;7.232;2022-09-09T12:56:24;3.60;;;1.17;;
2972;SDS011;1496;51.404;7.232;2022-09-09T12:58:57;4.70;;;0.90;;
2972;SDS011;1496;51.404;7.232;2022-09-09T13:01:25;5.33;;;1.40;;
2972;SDS011;1496;51.404;7.232;2022-09-09T13:03:53;4.97;;;1.70;;
2972;SDS011;1496;51.404;7.232;2022-09-09T13:06:20;3.17;;;1.33;;
2972;SDS011;1496;51.404;7.232;2022-09-09T13:08:51;4.47;;;1.13;;
2972;SDS011;1496;51.404;7.232;2022-09-09T13:11:23;5.80;;;1.40;;
2972;SDS011;1496;51.404;7.232;2022-09-09T13:13:54;7.07;;;1.27;;
2972;SDS011;1496;51.404;7.232;2022-09-09T13:16:31;5.93;;;1.17;;
2972;SDS011;1496;51.404;7.232;2022-09-09T13:19:00;3.90;;;1.50;;
2972;SDS011;1496;51.404;7.232;2022-09-09T13:21:34;3.17;;;1.47;;
2972;SDS011;1496;51.404;7.232;2022-09-09T13:24:02;3.77;;;0.90;;
2972;SDS011;1496;51.404;7.232;2022-09-09T13:26:33;3.67;;;1.30;;
2972;SDS011;1496;51.404;7.232;2022-09-09T13:29:18;4.53;;;1.40;;
2972;SDS011;1496;51.404;7.232;2022-09-09T13:31:44;5.13;;;1.53;;
2972;SDS011;1496;51.404;7.232;2022-09-09T13:34:22;2.63;;;1.23;;
2972;SDS011;1496;51.404;7.232;2022-09-09T13:37:01;6.13;;;1.50;;
2972;SDS011;1496;51.404;7.232;2022-09-09T13:39:31;3.67;;;1.00;;
2972;SDS011;1496;51.404;7.232;2022-09-09T13:41:59;4.43;;;1.60;;
2972;SDS011;1496;51.404;7.232;2022-09-09T13:44:36;3.23;;;1.03;;
2972;SDS011;1496;51.404;7.232;2022-09-09T13:49:30;5.80;;;2.37;;
2972;SDS011;1496;51.404;7.232;2022-09-09T13:54:32;3.13;;;1.40;;
2972;SDS011;1496;51.404;7.232;2022-09-09T13:56:58;3.00;;;1.50;;
2972;SDS011;1496;51.404;7.232;2022-09-09T13:59:24;3.87;;;1.17;;
2972;SDS011;1496;51.404;7.232;2022-09-09T14:01:51;2.70;;;1.30;;
2972;SDS011;1496;51.404;7.232;2022-09-09T14:04:17;3.53;;;1.50;;
2972;SDS011;1496;51.404;7.232;2022-09-09T14:06:45;3.47;;;1.30;;
2972;SDS011;1496;51.404;7.232;2022-09-09T14:09:13;7.53;;;1.77;;
2972;SDS011;1496;51.404;7.232;2022-09-09T14:11:40;4.13;;;1.30;;
2972;SDS011;1496;51.404;7.232;2022-09-09T14:14:07;5.17;;;1.30;;
2972;SDS011;1496;51.404;7.232;2022-09-09T14:16:32;3.00;;;1.20;;
2972;SDS011;1496;51.404;7.232;2022-09-09T14:18:58;2.90;;;1.00;;
2972;SDS011;1496;51.404;7.232;2022-09-09T14:21:24;4.00;;;1.30;;
2972;SDS011;1496;51.404;7.232;2022-09-09T14:23:51;4.60;;;1.47;;
2972;SDS011;1496;51.404;7.232;2022-09-09T14:26:18;5.37;;;1.57;;
2972;SDS011;1496;51.404;7.232;2022-09-09T14:28:46;5.73;;;1.20;;
2972;SDS011;1496;51.404;7.232;2022-09-09T14:31:12;4.57;;;1.37;;
2972;SDS011;1496;51.404;7.232;2022-09-09T14:33:38;4.50;;;1.10;;
2972;SDS011;1496;51.404;7.232;2022-09-09T14:36:05;5.50;;;2.03;;
2972;SDS011;1496;51.404;7.232;2022-09-09T14:38:32;3.17;;;1.07;;
2972;SDS011;1496;51.404;7.232;2022-09-09T14:41:00;4.23;;;1.13;;
2972;SDS011;1496;51.404;7.232;2022-09-09T14:43:28;5.00;;;1.43;;
2972;SDS011;1496;51.404;7.232;2022-09-09T14:45:55;5.33;;;1.67;;
2972;SDS011;1496;51.404;7.232;2022-09-09T14:48:20;4.80;;;1.20;;
2972;SDS011;1496;51.404;7.232;2022-09-09T14:50:46;4.63;;;1.70;;
2972;SDS011;1496;51.404;7.232;2022-09-09T14:53:12;3.67;;;1.50;;
2972;SDS011;1496;51.404;7.232;2022-09-09T14:55:37;5.00;;;1.50;;
2972;SDS011;1496;51.404;7.232;2022-09-09T14:58:04;3.77;;;1.87;;
2972;SDS011;1496;51.404;7.232;2022-09-09T15:00:31;8.43;;;1.80;;
2972;SDS011;1496;51.404;7.232;2022-09-09T15:02:57;5.30;;;1.90;;
2972;SDS011;1496;51.404;7.232;2022-09-09T15:05:22;3.30;;;1.90;;
2972;SDS011;1496;51.404;7.232;2022-09-09T15:07:49;4.80;;;1.63;;
2972;SDS011;1496;51.404;7.232;2022-09-09T15:10:15;4.50;;;1.90;;
2972;SDS011;1496;51.404;7.232;2022-09-09T15:12:42;4.33;;;1.83;;
2972;SDS011;1496;51.404;7.232;2022-09-09T15:15:08;6.37;;;1.70;;
2972;SDS011;1496;51.404;7.232;2022-09-09T15:17:35;4.60;;;1.57;;
2972;SDS011;1496;51.404;7.232;2022-09-09T15:20:04;4.40;;;2.10;;
2972;SDS011;1496;51.404;7.232;2022-09-09T15:22:31;3.40;;;1.73;;
2972;SDS011;1496;51.404;7.232;2022-09-09T15:24:57;5.10;;;1.50;;
2972;SDS011;1496;51.404;7.232;2022-09-09T15:27:22;2.40;;;0.83;;
2972;SDS011;1496;51.404;7.232;2022-09-09T15:29:48;1.40;;;0.70;;
2972;SDS011;1496;51.404;7.232;2022-09-09T15:32:15;2.73;;;1.00;;
2972;SDS011;1496;51.404;7.232;2022-09-09T15:34:40;3.23;;;0.80;;
2972;SDS011;1496;51.404;7.232;2022-09-09T15:37:09;1.90;;;1.00;;
2972;SDS011;1496;51.404;7.232;2022-09-09T15:39:38;5.13;;;1.07;;
2972;SDS011;1496;51.404;7.232;2022-09-09T15:42:05;5.87;;;0.90;;
2972;SDS011;1496;51.404;7.232;2022-09-09T15:44:41;2.90;;;0.80;;
2972;SDS011;1496;51.404;7.232;2022-09-09T15:47:07;2.43;;;0.80;;
2972;SDS011;1496;51.404;7.232;2022-09-09T15:49:35;3.27;;;0.90;;
2972;SDS011;1496;51.404;7.232;2022-09-09T15:52:01;4.40;;;0.90;;
2972;SDS011;1496;51.404;7.232;2022-09-09T15:54:29;7.60;;;1.10;;
2972;SDS011;1496;51.404;7.232;2022-09-09T15:56:58;8.90;;;0.93;;
2972;SDS011;1496;51.404;7.232;2022-09-09T15:59:26;10.00;;;0.80;;
2972;SDS011;1496;51.404;7.232;2022-09-09T16:01:53;15.07;;;1.20;;
2972;SDS011;1496;51.404;7.232;2022-09-09T16:04:20;15.00;;;1.17;;
2972;SDS011;1496;51.404;7.232;2022-09-09T16:06:51;11.83;;;1.10;;
2972;SDS011;1496;51.404;7.232;2022-09-09T16:09:17;15.80;;;1.13;;
2972;SDS011;1496;51.404;7.232;2022-09-09T16:11:44;12.27;;;1.20;;
2972;SDS011;1496;51.404;7.232;2022-09-09T16:14:09;16.00;;;1.33;;
2972;SDS011;1496;51.404;7.232;2022-09-09T16:16:36;17.97;;;1.20;;
2972;SDS011;1496;51.404;7.232;2022-09-09T16:19:08;18.20;;;1.30;;
2972;SDS011;1496;51.404;7.232;2022-09-09T16:21:37;18.20;;;1.13;;
2972;SDS011;1496;51.404;7.232;2022-09-09T16:24:08;18.50;;;1.10;;
2972;SDS011;1496;51.404;7.232;2022-09-09T16:26:36;20.10;;;1.40;;
2972;SDS011;1496;51.404;7.232;2022-09-09T16:29:03;18.90;;;1.10;;
2972;SDS011;1496;51.404;7.232;2022-09-09T16:31:29;20.77;;;1.00;;
2972;SDS011;1496;51.404;7.232;2022-09-09T16:33:58;22.40;;;1.30;;
2972;SDS011;1496;51.404;7.232;2022-09-09T16:36:28;23.00;;;1.40;;
2972;SDS011;1496;51.404;7.232;2022-09-09T16:38:56;21.77;;;1.20;;
2972;SDS011;1496;51.404;7.232;2022-09-09T16:41:27;26.50;;;1.80;;
2972;SDS011;1496;51.404;7.232;2022-09-09T16:43:54;23.80;;;1.37;;
2972;SDS011;1496;51.404;7.232;2022-09-09T16:46:22;24.00;;;1.60;;
2972;SDS011;1496;51.404;7.232;2022-09-09T16:48:49;30.43;;;1.93;;
2972;SDS011;1496;51.404;7.232;2022-09-09T16:51:19;23.50;;;1.50;;
2972;SDS011;1496;51.404;7.232;2022-09-09T16:53:50;23.40;;;1.43;;
2972;SDS011;1496;51.404;7.232;2022-09-09T16:56:18;22.37;;;1.47;;
2972;SDS011;1496;51.404;7.232;2022-09-09T16:58:55;20.40;;;1.30;;
2972;SDS011;1496;51.404;7.232;2022-09-09T17:01:26;23.10;;;1.63;;
2972;SDS011;1496;51.404;7.232;2022-09-09T17:03:58;17.10;;;1.20;;
2972;SDS011;1496;51.404;7.232;2022-09-09T17:06:29;16.53;;;1.60;;
2972;SDS011;1496;51.404;7.232;2022-09-09T17:08:56;15.83;;;1.77;;
2972;SDS011;1496;51.404;7.232;2022-09-09T17:11:23;12.47;;;1.70;;
2972;SDS011;1496;51.404;7.232;2022-09-09T17:13:49;10.63;;;1.40;;
2972;SDS011;1496;51.404;7.232;2022-09-09T17:16:16;8.40;;;1.30;;
2972;SDS011;1496;51.404;7.232;2022-09-09T17:18:42;9.97;;;1.60;;
2972;SDS011;1496;51.404;7.232;2022-09-09T17:21:09;9.47;;;1.70;;
2972;SDS011;1496;51.404;7.232;2022-09-09T17:23:41;6.73;;;1.20;;
2972;SDS011;1496;51.404;7.232;2022-09-09T17:26:09;6.67;;;1.40;;
2972;SDS011;1496;51.404;7.232;2022-09-09T17:28:37;6.70;;;1.47;;
2972;SDS011;1496;51.404;7.232;2022-09-09T17:31:04;7.50;;;1.50;;
2972;SDS011;1496;51.404;7.232;2022-09-09T17:33:35;7.33;;;1.60;;
2972;SDS011;1496;51.404;7.232;2022-09-09T17:38:39;9.60;;;1.70;;
2972;SDS011;1496;51.404;7.232;2022-09-09T17:41:22;9.43;;;1.90;;